SBOSBO SJC / KSJC
Speedbird OnlineSpeedbird Online SJC / KSJC

Norman Y. Mineta San Jose International Airport
16:32 17.3°C

Location San Jose, United States
Latitude: 37.362598
Longitude: -121.929001
Web Airport Website | Wikipedia
Altitude 19 Meter / 62 Feet
Distance 8,644 KM / 5,371 Miles
from London.
Time Zone UTC -8 hours (America/Los_Angeles)
Codes IATA: SJC
ICAO: KSJC
Currency £1 equals USD 1.21
Runways
RunwayLength (m)Surface
111402Asphalt
12L3353Concrete
12R3353Concrete
291402Asphalt
30L3353Concrete
30R3353Concrete
Radio
TypeDescriptionFrequency
APPNORCAL APP120.1
APPNORCAL APP33.82
ATISATIS126.95
CLDCLNC DEL118
CTAFCTAF124
DEPNORCAL DEP121.3
GNDGND121.7
TWRTWR124
Live ATC
METAR KSJC 081353Z 00000KT 10SM CLR 05/02 A3035 RMK AO2 SLP278 T00500022
TAF KSJC 081136Z 0812/0912 VRB03KT P6SM FEW250 FM082100 32007KT P6SM SCT250 FM090400 VRB03KT P6SM SKC
Weather As Of 08 Feb 2023 16:32
Description Few clouds
Wind 17 km/h from North-West (320°)
Cloud Cover 20%
Precipitation Rain: none, Snow: none
Sunrise 07:04
Sunset 17:39
Rotations During the last 90 days there were
51 flights from LHR
53 flights to LHR



Support Speedbird Online

© 2017-2023 Speedbird Online